createdAt,value
2023-01-20T00:01:47.792Z,100396.28
2023-01-20T00:04:15.193Z,100401.41
2023-01-20T00:06:41.685Z,100411.91
2023-01-20T00:09:08.120Z,100412.69
2023-01-20T00:11:34.556Z,100417.53
2023-01-20T00:14:02.245Z,100415.94
2023-01-20T00:16:31.758Z,100425.97
2023-01-20T00:18:58.498Z,100418.41
2023-01-20T00:21:24.949Z,100419.19
2023-01-20T00:23:51.544Z,100436.91
2023-01-20T00:26:21.998Z,100437.34
2023-01-20T00:28:50.002Z,100448.19
2023-01-20T00:31:25.839Z,100443.41
2023-01-20T00:33:54.924Z,100453.81
2023-01-20T00:36:22.847Z,100456.63
2023-01-20T00:38:49.497Z,100455.03
2023-01-20T00:41:16.971Z,100459.44
2023-01-20T00:43:43.685Z,100458.63
2023-01-20T00:46:11.065Z,100467.09
2023-01-20T00:48:37.742Z,100460.22
2023-01-20T00:51:06.261Z,100469.47
2023-01-20T00:53:32.722Z,100474.06
2023-01-20T00:55:59.177Z,100477.22
2023-01-20T00:58:26.189Z,100481.19
2023-01-20T01:00:55.147Z,100483.22
2023-01-20T01:03:22.444Z,100486.81
2023-01-20T01:05:48.879Z,100485.59
2023-01-20T01:08:15.349Z,100484.09
2023-01-20T01:10:41.815Z,100486.91
2023-01-20T01:13:08.917Z,100488.50
2023-01-20T01:15:35.802Z,100502.06
2023-01-20T01:18:02.769Z,100494.47
2023-01-20T01:20:29.227Z,100504.88
2023-01-20T01:22:56.217Z,100503.66
2023-01-20T01:25:22.713Z,100502.84
2023-01-20T01:27:49.159Z,100507.69
2023-01-20T01:30:15.593Z,100512.91
2023-01-20T01:32:42.122Z,100507.69
2023-01-20T01:35:08.940Z,100508.88
2023-01-20T01:37:35.803Z,100514.06
2023-01-20T01:40:02.317Z,100519.72
2023-01-20T01:42:28.750Z,100526.91
2023-01-20T01:45:10.462Z,100528.94
2023-01-20T01:47:40.216Z,100530.53
2023-01-20T01:50:11.233Z,100532.53
2023-01-20T01:52:41.305Z,100530.09
2023-01-20T01:55:08.436Z,100532.50
2023-01-20T01:57:35.560Z,100542.16
2023-01-20T02:00:04.160Z,100542.94
2023-01-20T02:02:40.158Z,100533.28
2023-01-20T02:05:07.002Z,100537.31
2023-01-20T02:07:34.139Z,100546.94
2023-01-20T02:10:01.619Z,100544.13
2023-01-20T02:12:29.168Z,100550.19
2023-01-20T02:14:59.005Z,100551.75
2023-01-20T02:17:43.802Z,100551.31
2023-01-20T02:20:47.826Z,100557.41
2023-01-20T02:23:25.392Z,100555.81
2023-01-20T02:26:30.524Z,100559.88
2023-01-20T02:29:08.663Z,100554.22
2023-01-20T02:31:56.827Z,100559.16
2023-01-20T02:34:32.892Z,100567.88
2023-01-20T02:37:06.413Z,100567.19
2023-01-20T02:40:05.928Z,100575.19
2023-01-20T02:42:42.435Z,100569.56
2023-01-20T02:45:23.830Z,100573.59
2023-01-20T02:48:05.562Z,100575.19
2023-01-20T02:50:42.953Z,100578.03
2023-01-20T02:53:12.525Z,100580.84
2023-01-20T02:55:44.115Z,100582.41
2023-01-20T02:58:18.029Z,100588.03
2023-01-20T03:00:46.084Z,100592.97
2023-01-20T03:03:18.066Z,100592.97
2023-01-20T03:05:54.651Z,100587.69
2023-01-20T03:08:24.980Z,100596.94
2023-01-20T03:10:54.513Z,100588.91
2023-01-20T03:13:36.938Z,100599.75
2023-01-20T03:16:09.748Z,100586.81
2023-01-20T03:18:37.683Z,100599.66
2023-01-20T03:21:06.970Z,100594.84
2023-01-20T03:23:35.897Z,100599.25
2023-01-20T03:26:06.898Z,100584.00
2023-01-20T03:28:33.481Z,100590.00
2023-01-20T03:31:02.664Z,100602.44
2023-01-20T03:33:29.229Z,100600.41
2023-01-20T03:35:55.748Z,100602.44
2023-01-20T03:38:22.275Z,100604.00
2023-01-20T03:41:00.419Z,100601.72
2023-01-20T03:43:42.840Z,100618.53
2023-01-20T03:46:19.291Z,100625.00
2023-01-20T03:49:02.376Z,100625.00
2023-01-20T03:51:43.284Z,100628.25
2023-01-20T03:54:12.394Z,100622.59
2023-01-20T03:56:49.451Z,100628.25
2023-01-20T03:59:20.050Z,100628.25
2023-01-20T04:01:47.055Z,100633.88
2023-01-20T04:04:18.209Z,100636.69
2023-01-20T04:06:46.073Z,100633.97
2023-01-20T04:09:23.403Z,100631.56
2023-01-20T04:11:51.274Z,100648.41
2023-01-20T04:14:17.948Z,100640.47
2023-01-20T04:16:51.890Z,100664.50
2023-01-20T04:19:18.475Z,100657.63
2023-01-20T04:21:50.033Z,100657.63
2023-01-20T04:24:25.239Z,100668.56
2023-01-20T04:26:51.806Z,100659.69
2023-01-20T04:29:18.280Z,100664.50
2023-01-20T04:31:44.779Z,100668.13
2023-01-20T04:34:15.339Z,100667.31
2023-01-20T04:36:42.679Z,100669.34
2023-01-20T04:39:09.243Z,100687.03
2023-01-20T04:41:35.685Z,100687.88
2023-01-20T04:44:02.171Z,100673.47
2023-01-20T04:46:28.627Z,100688.66
2023-01-20T04:48:55.078Z,100697.59
2023-01-20T04:51:21.529Z,100703.97
2023-01-20T04:53:47.958Z,100707.59
2023-01-20T04:56:15.475Z,100711.19
2023-01-20T04:58:42.684Z,100714.03
2023-01-20T05:01:09.654Z,100715.63
2023-01-20T05:03:36.471Z,100729.72
2023-01-20T05:06:03.378Z,100716.84
2023-01-20T05:08:29.831Z,100717.63
2023-01-20T05:10:56.268Z,100708.03
2023-01-20T05:13:22.770Z,100725.66
2023-01-20T05:15:49.391Z,100708.03
2023-01-20T05:18:16.015Z,100724.06
2023-01-20T05:20:45.919Z,100726.91
2023-01-20T05:23:12.547Z,100730.06
2023-01-20T05:25:39.391Z,100725.66
2023-01-20T05:28:06.283Z,100729.72
2023-01-20T05:30:33.062Z,100733.75
2023-01-20T05:32:59.592Z,100744.16
2023-01-20T05:35:26.182Z,100749.88
2023-01-20T05:37:54.419Z,100755.44
2023-01-20T05:40:21.595Z,100757.91
2023-01-20T05:42:48.028Z,100763.09
2023-01-20T05:45:14.747Z,100760.28
2023-01-20T05:47:41.326Z,100761.94
2023-01-20T05:50:08.326Z,100763.16
2023-01-20T05:52:34.774Z,100779.19
2023-01-20T05:55:01.200Z,100783.28
2023-01-20T05:57:27.604Z,100787.66
2023-01-20T05:59:55.613Z,100778.00
2023-01-20T06:02:22.159Z,100783.63
2023-01-20T06:04:49.472Z,100787.66
2023-01-20T06:07:15.963Z,100786.94
2023-01-20T06:09:42.365Z,100789.75
2023-01-20T06:12:08.970Z,100797.38
2023-01-20T06:14:35.452Z,100795.34
2023-01-20T06:17:01.896Z,100795.81
2023-01-20T06:19:28.310Z,100796.97
2023-01-20T06:21:54.766Z,100811.81
2023-01-20T06:24:21.208Z,100808.22
2023-01-20T06:26:50.747Z,100811.88
2023-01-20T06:29:17.235Z,100815.06
2023-01-20T06:31:44.753Z,100825.56
2023-01-20T06:34:11.975Z,100827.13
2023-01-20T06:36:38.771Z,100827.94
2023-01-20T06:39:05.463Z,100837.19
2023-01-20T06:41:32.011Z,100845.63
2023-01-20T06:43:58.457Z,100845.63
2023-01-20T06:46:24.955Z,100854.09
2023-01-20T06:48:51.589Z,100855.31
2023-01-20T06:51:21.082Z,100862.56
2023-01-20T06:53:47.582Z,100856.91
2023-01-20T06:56:15.318Z,100865.00
2023-01-20T06:58:42.618Z,100877.44
2023-01-20T07:01:27.192Z,100870.66
2023-01-20T07:03:54.238Z,100881.09
2023-01-20T07:06:26.298Z,100884.75
2023-01-20T07:08:53.194Z,100887.56
2023-01-20T07:11:19.700Z,100896.81
2023-01-20T07:13:46.257Z,100893.19
2023-01-20T07:16:15.554Z,100906.06
2023-01-20T07:18:43.532Z,100904.47
2023-01-20T07:21:11.623Z,100910.13
2023-01-20T07:23:38.062Z,100912.13
2023-01-20T07:26:09.478Z,100915.75
2023-01-20T07:28:36.839Z,100928.59
2023-01-20T07:31:12.247Z,100923.38
2023-01-20T07:33:39.332Z,100926.22
2023-01-20T07:36:07.783Z,100931.06
2023-01-20T07:38:34.742Z,100942.69
2023-01-20T07:41:04.939Z,100943.94
2023-01-20T07:43:32.468Z,100945.50
2023-01-20T07:46:00.936Z,100941.97
2023-01-20T07:48:29.820Z,100956.06
2023-01-20T07:51:02.581Z,100957.63
2023-01-20T07:53:30.295Z,100965.66
2023-01-20T07:56:00.773Z,100965.72
2023-01-20T07:58:27.763Z,100966.50
2023-01-20T08:00:54.383Z,100980.66
2023-01-20T08:03:20.867Z,100988.28
2023-01-20T08:05:47.606Z,100994.69
2023-01-20T08:08:14.064Z,101001.09
2023-01-20T08:10:40.722Z,101004.78
2023-01-20T08:13:07.173Z,101018.03
2023-01-20T08:15:33.555Z,101015.63
2023-01-20T08:18:00.301Z,101022.06
2023-01-20T08:20:27.045Z,101028.50
2023-01-20T08:22:53.512Z,101035.72
2023-01-20T08:25:19.939Z,101034.94
2023-01-20T08:27:48.434Z,101034.16
2023-01-20T08:30:15.048Z,101042.59
2023-01-20T08:32:41.516Z,101051.06
2023-01-20T08:35:08.284Z,101048.25
2023-01-20T08:37:36.993Z,101046.25
2023-01-20T08:40:09.159Z,101058.28
2023-01-20T08:42:39.247Z,101055.88
2023-01-20T08:45:07.670Z,101056.69
2023-01-20T08:47:46.086Z,101059.50
2023-01-20T08:50:14.835Z,101065.16
2023-01-20T08:52:42.061Z,101065.56
2023-01-20T08:55:09.263Z,101076.84
2023-01-20T08:57:35.847Z,101066.41
2023-01-20T09:00:05.382Z,101078.00
2023-01-20T09:02:32.017Z,101084.06
2023-01-20T09:04:58.831Z,101085.69
2023-01-20T09:07:26.872Z,101086.47
2023-01-20T09:09:53.308Z,101091.31
2023-01-20T09:12:20.697Z,101076.03
2023-01-20T09:14:47.299Z,101079.25
2023-01-20T09:17:14.676Z,101069.19
2023-01-20T09:19:41.130Z,101084.88
2023-01-20T09:22:07.615Z,101081.22
2023-01-20T09:24:34.148Z,101084.84
2023-01-20T09:27:00.569Z,101092.88
2023-01-20T09:29:27.320Z,101092.88
2023-01-20T09:31:58.051Z,101092.88
2023-01-20T09:34:27.338Z,101098.50
2023-01-20T09:36:58.549Z,101083.19
2023-01-20T09:39:43.388Z,101098.50
2023-01-20T09:43:13.310Z,101102.53
2023-01-20T09:46:20.984Z,101104.94
2023-01-20T09:49:45.272Z,101109.78
2023-01-20T09:52:40.817Z,101121.84
2023-01-20T09:55:17.107Z,101118.19
2023-01-20T09:57:50.718Z,101119.44
2023-01-20T10:00:23.645Z,101126.66
2023-01-20T10:02:57.965Z,101131.44
2023-01-20T10:05:32.910Z,101123.34
2023-01-20T10:08:12.951Z,101117.78
2023-01-20T10:10:53.898Z,101133.00
2023-01-20T10:13:31.468Z,101128.97
2023-01-20T10:16:02.093Z,101129.75
2023-01-20T10:18:54.427Z,101136.19
2023-01-20T10:21:37.791Z,101132.53
2023-01-20T10:24:09.425Z,101125.72
2023-01-20T10:26:59.109Z,101131.31
2023-01-20T10:29:35.075Z,101129.25
2023-01-20T10:32:04.074Z,101129.25
2023-01-20T10:34:40.706Z,101121.63
2023-01-20T10:37:10.377Z,101131.22
2023-01-20T10:39:50.626Z,101131.25
2023-01-20T10:42:18.872Z,101136.84
2023-01-20T10:44:47.303Z,101137.69
2023-01-20T10:47:24.206Z,101136.84
2023-01-20T10:50:30.845Z,101132.81
2023-01-20T10:53:33.530Z,101140.06
2023-01-20T10:56:21.352Z,101145.75
2023-01-20T10:58:47.884Z,101145.72
2023-01-20T11:01:18.967Z,101151.34
2023-01-20T11:03:48.340Z,101143.72
2023-01-20T11:06:26.346Z,101158.94
2023-01-20T11:08:53.805Z,101161.34
2023-01-20T11:11:25.616Z,101159.34
2023-01-20T11:13:53.173Z,101149.63
2023-01-20T11:16:24.702Z,101163.31
2023-01-20T11:18:57.845Z,101159.34
2023-01-20T11:21:26.313Z,101161.69
2023-01-20T11:23:57.703Z,101164.88
2023-01-20T11:26:28.272Z,101170.09
2023-01-20T11:29:24.141Z,101172.91
2023-01-20T11:31:53.369Z,101177.34
2023-01-20T11:34:24.201Z,101183.78
2023-01-20T11:37:11.544Z,101172.97
2023-01-20T11:39:58.039Z,101183.41
2023-01-20T11:42:27.370Z,101194.16
2023-01-20T11:45:20.218Z,101189.38
2023-01-20T11:48:00.361Z,101193.00
2023-01-20T11:50:39.465Z,101181.75
2023-01-20T11:53:17.407Z,101199.34
2023-01-20T11:55:50.294Z,101201.72
2023-01-20T11:58:23.016Z,101203.72
2023-01-20T12:00:52.368Z,101214.56
2023-01-20T12:03:35.884Z,101207.72
2023-01-20T12:06:23.004Z,101209.31
2023-01-20T12:09:10.511Z,101211.72
2023-01-20T12:11:51.950Z,101205.25
2023-01-20T12:14:25.145Z,101207.66
2023-01-20T12:17:16.595Z,101216.13
2023-01-20T12:20:26.719Z,101213.31
2023-01-20T12:23:30.183Z,101223.38
2023-01-20T12:26:05.619Z,101220.94
2023-01-20T12:28:51.539Z,101216.06
2023-01-20T12:31:20.232Z,101224.53
2023-01-20T12:33:59.440Z,101224.13
2023-01-20T12:37:03.278Z,101228.91
2023-01-20T12:39:32.944Z,101232.94
2023-01-20T12:42:17.827Z,101233.34
2023-01-20T12:45:00.774Z,101236.53
2023-01-20T12:47:33.036Z,101240.19
2023-01-20T12:50:29.984Z,101238.53
2023-01-20T12:53:05.395Z,101241.72
2023-01-20T12:55:44.857Z,101250.56
2023-01-20T12:58:17.283Z,101250.56
2023-01-20T13:01:28.220Z,101245.84
2023-01-20T13:04:11.412Z,101260.25
2023-01-20T13:06:58.057Z,101265.53
2023-01-20T13:09:46.352Z,101270.75
2023-01-20T13:12:33.993Z,101258.75
2023-01-20T13:15:28.169Z,101273.59
2023-01-20T13:18:16.612Z,101278.00
2023-01-20T13:20:45.494Z,101277.19
2023-01-20T13:23:20.341Z,101286.03
2023-01-20T13:25:47.537Z,101285.63
2023-01-20T13:28:23.722Z,101288.50
2023-01-20T13:30:53.998Z,101290.06
2023-01-20T13:33:35.876Z,101299.38
2023-01-20T13:36:18.727Z,101309.38
2023-01-20T13:38:46.781Z,101299.72
2023-01-20T13:41:48.632Z,101303.75
2023-01-20T13:44:42.598Z,101297.34
2023-01-20T13:47:10.815Z,101300.56
2023-01-20T13:49:50.158Z,101312.63
2023-01-20T13:53:05.698Z,101323.50
2023-01-20T13:55:41.001Z,101330.78
2023-01-20T13:58:19.250Z,101325.13
2023-01-20T14:00:48.487Z,101340.81
2023-01-20T14:03:23.754Z,101339.59
2023-01-20T14:05:54.425Z,101342.44
2023-01-20T14:08:22.546Z,101336.00
2023-01-20T14:10:49.440Z,101344.84
2023-01-20T14:13:24.731Z,101349.66
2023-01-20T14:15:55.725Z,101352.88
2023-01-20T14:18:25.094Z,101352.06
2023-01-20T14:20:59.775Z,101359.31
2023-01-20T14:23:35.265Z,101360.13
2023-01-20T14:26:05.881Z,101361.72
2023-01-20T14:28:33.231Z,101364.59
2023-01-20T14:31:25.436Z,101370.63
2023-01-20T14:34:24.125Z,101377.88
2023-01-20T14:36:51.531Z,101379.88
2023-01-20T14:39:23.848Z,101377.06
2023-01-20T14:42:20.694Z,101388.34
2023-01-20T14:44:48.880Z,101392.78
2023-01-20T14:47:15.898Z,101382.75
2023-01-20T14:49:43.505Z,101395.59
2023-01-20T14:52:21.662Z,101398.06
2023-01-20T14:54:51.666Z,101408.13
2023-01-20T14:57:29.146Z,101415.78
2023-01-20T15:00:15.329Z,101409.78
2023-01-20T15:03:01.039Z,101423.06
2023-01-20T15:05:35.000Z,101426.31
2023-01-20T15:08:26.252Z,101437.63
2023-01-20T15:11:21.208Z,101434.03
2023-01-20T15:13:53.621Z,101445.72
2023-01-20T15:16:26.515Z,101441.31
2023-01-20T15:19:18.535Z,101451.41
2023-01-20T15:21:49.945Z,101446.97
2023-01-20T15:24:20.750Z,101451.81
2023-01-20T15:26:49.655Z,101457.50
2023-01-20T15:29:27.649Z,101458.72
2023-01-20T15:31:56.460Z,101464.41
2023-01-20T15:34:24.163Z,101469.69
2023-01-20T15:36:51.864Z,101482.13
2023-01-20T15:39:20.666Z,101473.34
2023-01-20T15:41:48.644Z,101497.50
2023-01-20T15:44:15.352Z,101495.13
2023-01-20T15:46:41.787Z,101492.31
2023-01-20T15:49:14.735Z,101504.84
2023-01-20T15:51:42.520Z,101512.09
2023-01-20T15:54:09.333Z,101525.00
2023-01-20T15:56:38.768Z,101504.56
2023-01-20T15:59:16.587Z,101521.84
2023-01-20T16:01:46.925Z,101526.28
2023-01-20T16:04:13.416Z,101533.97
2023-01-20T16:06:40.024Z,101539.63
2023-01-20T16:09:23.728Z,101543.72
2023-01-20T16:11:50.122Z,101551.75
2023-01-20T16:14:16.573Z,101557.41
2023-01-20T16:16:43.047Z,101568.69
2023-01-20T16:19:13.464Z,101563.91
2023-01-20T16:21:40.004Z,101572.38
2023-01-20T16:24:07.053Z,101576.81
2023-01-20T16:26:34.909Z,101579.25
2023-01-20T16:29:01.345Z,101582.47
2023-01-20T16:31:28.341Z,101585.75
2023-01-20T16:33:55.739Z,101591.38
2023-01-20T16:36:23.689Z,101601.03
2023-01-20T16:38:51.098Z,101609.13
2023-01-20T16:41:23.395Z,101606.72
2023-01-20T16:43:51.313Z,101617.19
2023-01-20T16:46:23.694Z,101617.59
2023-01-20T16:48:50.530Z,101617.25
2023-01-20T16:51:26.553Z,101626.88
2023-01-20T16:53:54.291Z,101624.88
2023-01-20T16:56:29.043Z,101629.38
2023-01-20T16:59:01.361Z,101643.03
2023-01-20T17:01:30.044Z,101642.22
2023-01-20T17:03:59.124Z,101646.28
2023-01-20T17:06:28.520Z,101650.31
2023-01-20T17:08:56.966Z,101654.72
2023-01-20T17:11:26.302Z,101665.25
2023-01-20T17:13:53.703Z,101676.09
2023-01-20T17:16:20.936Z,101676.50
2023-01-20T17:18:51.571Z,101685.38
2023-01-20T17:21:22.004Z,101685.78
2023-01-20T17:23:52.259Z,101688.22
2023-01-20T17:26:20.156Z,101689.84
2023-01-20T17:28:47.001Z,101703.53
2023-01-20T17:31:13.965Z,101709.16
2023-01-20T17:33:45.523Z,101712.38
2023-01-20T17:36:12.086Z,101712.78
2023-01-20T17:38:41.697Z,101713.22
2023-01-20T17:41:08.661Z,101723.66
2023-01-20T17:43:40.498Z,101722.06
2023-01-20T17:46:18.876Z,101715.22
2023-01-20T17:48:46.075Z,101725.28
2023-01-20T17:51:26.475Z,101725.69
2023-01-20T17:53:53.726Z,101734.53
2023-01-20T17:56:22.159Z,101739.00
2023-01-20T17:58:50.388Z,101743.81
2023-01-20T18:01:28.577Z,101742.22
2023-01-20T18:04:00.433Z,101747.84
2023-01-20T18:06:29.089Z,101748.66
2023-01-20T18:08:59.306Z,101755.47
2023-01-20T18:11:27.650Z,101750.66
2023-01-20T18:13:56.486Z,101752.66
2023-01-20T18:16:26.471Z,101760.72
2023-01-20T18:18:58.418Z,101760.31
2023-01-20T18:21:28.885Z,101768.78
2023-01-20T18:23:56.236Z,101765.13
2023-01-20T18:26:24.582Z,101762.31
2023-01-20T18:28:55.368Z,101776.81
2023-01-20T18:31:25.839Z,101767.97
2023-01-20T18:33:57.094Z,101784.88
2023-01-20T18:36:29.299Z,101782.06
2023-01-20T18:39:01.388Z,101783.25
2023-01-20T18:41:30.763Z,101792.53
2023-01-20T18:43:57.718Z,101788.09
2023-01-20T18:46:25.995Z,101798.56
2023-01-20T18:48:54.551Z,101805.00
2023-01-20T18:51:24.345Z,101817.88
2023-01-20T18:54:02.032Z,101818.69
2023-01-20T18:56:29.718Z,101804.19
2023-01-20T18:58:56.957Z,101826.75
2023-01-20T19:01:26.008Z,101816.28
2023-01-20T19:03:53.242Z,101832.38
2023-01-20T19:06:25.072Z,101821.91
2023-01-20T19:08:52.522Z,101838.00
2023-01-20T19:11:22.779Z,101833.97
2023-01-20T19:13:50.993Z,101832.78
2023-01-20T19:16:19.108Z,101835.16
2023-01-20T19:18:54.242Z,101844.06
2023-01-20T19:21:22.056Z,101851.28
2023-01-20T19:23:50.465Z,101843.63
2023-01-20T19:26:20.327Z,101858.13
2023-01-20T19:28:48.481Z,101867.78
2023-01-20T19:31:17.881Z,101871.78
2023-01-20T19:33:48.814Z,101864.97
2023-01-20T19:36:17.722Z,101860.53
2023-01-20T19:38:44.986Z,101859.72
2023-01-20T19:41:17.495Z,101879.44
2023-01-20T19:43:44.799Z,101881.47
2023-01-20T19:46:13.742Z,101880.63
2023-01-20T19:48:49.405Z,101886.28
2023-01-20T19:51:17.221Z,101889.53
2023-01-20T19:53:44.078Z,101885.09
2023-01-20T19:56:15.810Z,101895.56
2023-01-20T19:58:43.106Z,101898.38
2023-01-20T20:01:17.060Z,101899.16
2023-01-20T20:03:44.188Z,101899.16
2023-01-20T20:06:31.922Z,101901.59
2023-01-20T20:09:03.619Z,101908.41
2023-01-20T20:11:31.200Z,101899.97
2023-01-20T20:13:59.762Z,101918.09
2023-01-20T20:16:29.149Z,101913.66
2023-01-20T20:18:56.564Z,101925.72
2023-01-20T20:21:23.851Z,101935.34
2023-01-20T20:23:51.747Z,101933.75
2023-01-20T20:26:19.286Z,101926.50
2023-01-20T20:28:46.198Z,101942.59
2023-01-20T20:31:12.718Z,101943.81
2023-01-20T20:33:39.245Z,101945.03
2023-01-20T20:36:07.515Z,101942.59
2023-01-20T20:38:36.594Z,101945.81
2023-01-20T20:41:08.820Z,101939.78
2023-01-20T20:43:36.199Z,101949.81
2023-01-20T20:46:04.223Z,101941.78
2023-01-20T20:48:31.272Z,101957.47
2023-01-20T20:51:03.846Z,101947.78
2023-01-20T20:53:30.436Z,101963.09
2023-01-20T20:55:59.207Z,101963.50
2023-01-20T20:58:26.111Z,101957.81
2023-01-20T21:00:52.558Z,101956.22
2023-01-20T21:03:19.621Z,101960.22
2023-01-20T21:05:56.643Z,101975.94
2023-01-20T21:08:25.312Z,101976.34
2023-01-20T21:10:51.954Z,101983.97
2023-01-20T21:13:18.704Z,101969.88
2023-01-20T21:15:54.843Z,101976.28
2023-01-20T21:18:21.323Z,101979.50
2023-01-20T21:20:57.079Z,101985.09
2023-01-20T21:23:24.272Z,101988.34
2023-01-20T21:25:50.776Z,102000.41
2023-01-20T21:28:17.224Z,101991.13
2023-01-20T21:30:43.720Z,102000.00
2023-01-20T21:33:15.353Z,102000.00
2023-01-20T21:35:41.856Z,102000.41
2023-01-20T21:38:08.359Z,102000.41
2023-01-20T21:40:34.977Z,101997.13
2023-01-20T21:43:20.120Z,102009.66
2023-01-20T21:45:56.655Z,102013.25
2023-01-20T21:48:42.032Z,102016.03
2023-01-20T21:51:30.170Z,102012.06
2023-01-20T21:53:56.574Z,102010.81
2023-01-20T21:56:23.010Z,102015.25
2023-01-20T21:58:49.487Z,102023.31
2023-01-20T22:01:15.939Z,102026.91
2023-01-20T22:03:42.446Z,102027.31
2023-01-20T22:06:09.022Z,102027.72
2023-01-20T22:08:35.461Z,102038.59
2023-01-20T22:11:01.869Z,102043.44
2023-01-20T22:13:28.506Z,102042.19
2023-01-20T22:15:55.134Z,102045.47
2023-01-20T22:18:21.598Z,102037.41
2023-01-20T22:20:48.028Z,102050.69
2023-01-20T22:23:14.472Z,102066.38
2023-01-20T22:25:40.948Z,102058.31
2023-01-20T22:28:07.408Z,102065.19
2023-01-20T22:30:33.931Z,102065.19
2023-01-20T22:33:00.475Z,102078.03
2023-01-20T22:35:26.947Z,102079.66
2023-01-20T22:37:53.434Z,102082.47
2023-01-20T22:40:19.855Z,102086.50
2023-01-20T22:42:46.304Z,102086.50
2023-01-20T22:45:12.737Z,102098.59
2023-01-20T22:47:39.121Z,102087.31
2023-01-20T22:50:07.828Z,102095.00
2023-01-20T22:52:34.268Z,102088.53
2023-01-20T22:55:00.934Z,102093.38
2023-01-20T22:57:29.971Z,102098.63
2023-01-20T22:59:56.381Z,102097.81
2023-01-20T23:02:22.900Z,102098.63
2023-01-20T23:04:49.381Z,102099.44
2023-01-20T23:07:15.815Z,102106.69
2023-01-20T23:09:42.263Z,102113.94
2023-01-20T23:12:08.665Z,102109.50
2023-01-20T23:14:53.842Z,102114.72
2023-01-20T23:17:20.274Z,102112.72
2023-01-20T23:19:46.673Z,102124.41
2023-01-20T23:22:13.107Z,102122.78
2023-01-20T23:24:39.550Z,102132.44
2023-01-20T23:27:05.991Z,102127.16
2023-01-20T23:29:33.247Z,102140.50
2023-01-20T23:31:59.714Z,102146.94
2023-01-20T23:34:26.243Z,102145.31
2023-01-20T23:36:52.702Z,102146.56
2023-01-20T23:39:19.228Z,102139.72
2023-01-20T23:41:45.668Z,102150.19
2023-01-20T23:44:12.230Z,102147.38
2023-01-20T23:46:38.642Z,102148.56
2023-01-20T23:49:05.119Z,102146.97
2023-01-20T23:51:31.621Z,102147.38
2023-01-20T23:53:58.248Z,102150.59
2023-01-20T23:56:25.344Z,102155.03
2023-01-20T23:58:52.219Z,102164.66
